FZAA/FIH METAR and TAF weather

Enter ICAO airport designator
Station Type Date Time Source
FZAA METAR 2018/10/19 14:00 UTC NOAA

FZAA 191400Z 32010KT 9999 FEW025 FEW032CB 33/20 Q1008 NOSIG


Station Type Date Time Source
FZAA Decoded METAR 2018/10/19 14:00 UTC NOAA

Kinshasa / N'Djili, Congo, Democratic Republic of the (FZAA) 04-23S 015-26E 312M
Oct 19, 2018 - 10:00 AM EDT / 2018.10.19 1400 UTC
Wind: from the NW (320 degrees) at 12 MPH (10 KT):0
Visibility: greater than 7 mile(s):0
Sky conditions: mostly clear
Weather: Cumulonimbus clouds observed
Temperature: 91 F (33 C)
Heat index: 94.6 F (34.8 C):1
Dew Point: 68 F (20 C)
Relative Humidity: 46%
Pressure (altimeter): 29.77 in. Hg (1008 hPa)
ob: FZAA 191400Z 32010KT 9999 FEW025 FEW032CB 33/20 Q1008 NOSIG
cycle: 14

Station Type Date Time Source
FZAA TAF 2018/10/19 12:54 UTC NOAA

TAF TAF FZAA 191100Z 1912/2018 28010KT 8000 FEW024
BECMG 1912/1914 SCT024 FEW030CB PROB30 1915/1918 TS
BECMG 1918/1920 20004KT FEW018
BECMG 2010/2012 32010KT SCT024 FEW030CB
TEMPO 2014/2018 TS


Example: see airport list